sensor_id;sensor_type;location;lat;lon;timestamp;pressure;altitude;pressure_sealevel;temperature;humidity
35519;BME280;21627;48.216;16.482;2023-02-03T00:02:26;100702.28;;;2.29;100.00
35519;BME280;21627;48.216;16.482;2023-02-03T00:04:53;100690.31;;;2.10;100.00
35519;BME280;21627;48.216;16.482;2023-02-03T00:07:24;100712.91;;;2.21;100.00
35519;BME280;21627;48.216;16.482;2023-02-03T00:09:51;100715.09;;;2.13;100.00
35519;BME280;21627;48.216;16.482;2023-02-03T00:12:19;100710.94;;;2.15;100.00
35519;BME280;21627;48.216;16.482;2023-02-03T00:14:46;100721.22;;;2.16;100.00
35519;BME280;21627;48.216;16.482;2023-02-03T00:17:13;100718.59;;;2.15;100.00
35519;BME280;21627;48.216;16.482;2023-02-03T00:19:41;100722.50;;;2.08;100.00
35519;BME280;21627;48.216;16.482;2023-02-03T00:22:08;100713.75;;;2.03;100.00
35519;BME280;21627;48.216;16.482;2023-02-03T00:24:35;100729.53;;;2.12;100.00
35519;BME280;21627;48.216;16.482;2023-02-03T00:27:02;100727.13;;;2.15;100.00
35519;BME280;21627;48.216;16.482;2023-02-03T00:29:30;100717.41;;;2.08;100.00
35519;BME280;21627;48.216;16.482;2023-02-03T00:31:58;100734.91;;;2.19;100.00
35519;BME280;21627;48.216;16.482;2023-02-03T00:34:29;100727.69;;;2.10;100.00
35519;BME280;21627;48.216;16.482;2023-02-03T00:36:57;100725.59;;;2.19;100.00
35519;BME280;21627;48.216;16.482;2023-02-03T00:39:28;100724.72;;;2.19;100.00
35519;BME280;21627;48.216;16.482;2023-02-03T00:41:55;100735.72;;;2.17;100.00
35519;BME280;21627;48.216;16.482;2023-02-03T00:44:23;100732.31;;;2.17;100.00
35519;BME280;21627;48.216;16.482;2023-02-03T00:46:50;100729.91;;;2.20;100.00
35519;BME280;21627;48.216;16.482;2023-02-03T00:49:17;100725.59;;;2.19;100.00
35519;BME280;21627;48.216;16.482;2023-02-03T00:51:44;100734.34;;;2.24;100.00
35519;BME280;21627;48.216;16.482;2023-02-03T00:54:11;100742.22;;;2.29;100.00
35519;BME280;21627;48.216;16.482;2023-02-03T00:56:39;100741.22;;;2.25;100.00
35519;BME280;21627;48.216;16.482;2023-02-03T00:59:07;100727.00;;;2.30;100.00
35519;BME280;21627;48.216;16.482;2023-02-03T01:01:35;100717.19;;;2.22;100.00
35519;BME280;21627;48.216;16.482;2023-02-03T01:04:03;100729.78;;;2.35;100.00
35519;BME280;21627;48.216;16.482;2023-02-03T01:06:30;100728.81;;;2.33;100.00
35519;BME280;21627;48.216;16.482;2023-02-03T01:08:57;100728.22;;;2.21;100.00
35519;BME280;21627;48.216;16.482;2023-02-03T01:11:26;100722.47;;;2.25;100.00
35519;BME280;21627;48.216;16.482;2023-02-03T01:13:57;100711.66;;;2.12;100.00
35519;BME280;21627;48.216;16.482;2023-02-03T01:16:29;100716.78;;;2.12;100.00
35519;BME280;21627;48.216;16.482;2023-02-03T01:19:00;100714.22;;;2.12;100.00
35519;BME280;21627;48.216;16.482;2023-02-03T01:21:28;100709.91;;;2.11;100.00
35519;BME280;21627;48.216;16.482;2023-02-03T01:23:57;100707.16;;;2.07;100.00
35519;BME280;21627;48.216;16.482;2023-02-03T01:26:25;100690.34;;;1.94;100.00
35519;BME280;21627;48.216;16.482;2023-02-03T01:28:56;100701.00;;;2.03;100.00
35519;BME280;21627;48.216;16.482;2023-02-03T01:31:33;100684.31;;;1.92;100.00
35519;BME280;21627;48.216;16.482;2023-02-03T01:34:10;100692.97;;;1.95;100.00
35519;BME280;21627;48.216;16.482;2023-02-03T01:36:38;100689.91;;;1.85;100.00
35519;BME280;21627;48.216;16.482;2023-02-03T01:39:05;100675.91;;;1.77;100.00
35519;BME280;21627;48.216;16.482;2023-02-03T01:41:37;100674.69;;;1.70;100.00
35519;BME280;21627;48.216;16.482;2023-02-03T01:52:43;100658.22;;;1.63;100.00
35519;BME280;21627;48.216;16.482;2023-02-03T01:55:15;100661.72;;;1.65;100.00
35519;BME280;21627;48.216;16.482;2023-02-03T01:57:58;100647.72;;;1.57;100.00
35519;BME280;21627;48.216;16.482;2023-02-03T02:00:26;100667.16;;;1.71;100.00
35519;BME280;21627;48.216;16.482;2023-02-03T02:02:54;100647.25;;;1.64;100.00
35519;BME280;21627;48.216;16.482;2023-02-03T02:06:18;100666.03;;;1.66;100.00
35519;BME280;21627;48.216;16.482;2023-02-03T02:08:49;100654.50;;;1.57;100.00
35519;BME280;21627;48.216;16.482;2023-02-03T02:11:18;100662.06;;;1.55;100.00
35519;BME280;21627;48.216;16.482;2023-02-03T02:13:51;100667.00;;;1.52;100.00
35519;BME280;21627;48.216;16.482;2023-02-03T02:37:18;100631.25;;;2.03;100.00
35519;BME280;21627;48.216;16.482;2023-02-03T02:45:51;100620.19;;;2.02;100.00
35519;BME280;21627;48.216;16.482;2023-02-03T02:51:39;100621.56;;;2.13;100.00
35519;BME280;21627;48.216;16.482;2023-02-03T02:54:11;100624.25;;;2.16;100.00
35519;BME280;21627;48.216;16.482;2023-02-03T02:56:47;100613.19;;;2.16;100.00
35519;BME280;21627;48.216;16.482;2023-02-03T02:59:16;100620.84;;;2.16;100.00
35519;BME280;21627;48.216;16.482;2023-02-03T03:01:44;100625.16;;;2.17;100.00
35519;BME280;21627;48.216;16.482;2023-02-03T03:04:15;100612.91;;;2.28;100.00
35519;BME280;21627;48.216;16.482;2023-02-03T03:06:58;100601.88;;;2.29;100.00
35519;BME280;21627;48.216;16.482;2023-02-03T03:09:35;100579.06;;;2.14;100.00
35519;BME280;21627;48.216;16.482;2023-02-03T03:12:33;100583.00;;;2.25;100.00
35519;BME280;21627;48.216;16.482;2023-02-03T03:15:16;100566.25;;;2.12;100.00
35519;BME280;21627;48.216;16.482;2023-02-03T03:18:12;100586.66;;;2.12;100.00
35519;BME280;21627;48.216;16.482;2023-02-03T03:20:42;100581.56;;;2.12;100.00
35519;BME280;21627;48.216;16.482;2023-02-03T03:23:26;100586.91;;;2.17;100.00
35519;BME280;21627;48.216;16.482;2023-02-03T03:26:02;100590.00;;;2.11;100.00
35519;BME280;21627;48.216;16.482;2023-02-03T03:28:41;100591.03;;;1.97;100.00
35519;BME280;21627;48.216;16.482;2023-02-03T03:31:11;100578.84;;;1.91;100.00
35519;BME280;21627;48.216;16.482;2023-02-03T03:33:39;100578.13;;;1.94;100.00
35519;BME280;21627;48.216;16.482;2023-02-03T03:36:28;100575.78;;;1.99;100.00
35519;BME280;21627;48.216;16.482;2023-02-03T03:45:08;100586.38;;;1.88;100.00
35519;BME280;21627;48.216;16.482;2023-02-03T03:47:48;100591.41;;;1.87;100.00
35519;BME280;21627;48.216;16.482;2023-02-03T03:51:12;100582.44;;;1.77;100.00
35519;BME280;21627;48.216;16.482;2023-02-03T03:53:19;100584.16;;;1.78;100.00
35519;BME280;21627;48.216;16.482;2023-02-03T03:55:50;100596.13;;;1.79;100.00
35519;BME280;21627;48.216;16.482;2023-02-03T03:58:29;100599.91;;;1.69;100.00
35519;BME280;21627;48.216;16.482;2023-02-03T04:01:04;100611.06;;;1.71;100.00
35519;BME280;21627;48.216;16.482;2023-02-03T04:03:45;100610.75;;;1.65;100.00
35519;BME280;21627;48.216;16.482;2023-02-03T04:06:14;100627.13;;;1.70;100.00
35519;BME280;21627;48.216;16.482;2023-02-03T04:08:42;100621.47;;;1.76;100.00
35519;BME280;21627;48.216;16.482;2023-02-03T04:11:09;100604.34;;;1.73;100.00
35519;BME280;21627;48.216;16.482;2023-02-03T04:13:36;100590.50;;;1.68;100.00
35519;BME280;21627;48.216;16.482;2023-02-03T04:16:04;100585.34;;;1.67;100.00
35519;BME280;21627;48.216;16.482;2023-02-03T04:18:34;100596.41;;;1.67;100.00
35519;BME280;21627;48.216;16.482;2023-02-03T04:21:01;100592.13;;;1.66;100.00
35519;BME280;21627;48.216;16.482;2023-02-03T04:23:28;100585.25;;;1.65;100.00
35519;BME280;21627;48.216;16.482;2023-02-03T04:25:55;100575.06;;;1.65;100.00
35519;BME280;21627;48.216;16.482;2023-02-03T04:28:22;100568.28;;;1.66;100.00
35519;BME280;21627;48.216;16.482;2023-02-03T04:30:50;100550.16;;;1.60;100.00
35519;BME280;21627;48.216;16.482;2023-02-03T04:33:17;100547.81;;;1.64;100.00
35519;BME280;21627;48.216;16.482;2023-02-03T04:35:44;100558.97;;;1.66;100.00
35519;BME280;21627;48.216;16.482;2023-02-03T04:38:14;100562.25;;;1.64;100.00
35519;BME280;21627;48.216;16.482;2023-02-03T04:40:41;100552.19;;;1.67;100.00
35519;BME280;21627;48.216;16.482;2023-02-03T04:43:14;100547.97;;;1.67;100.00
35519;BME280;21627;48.216;16.482;2023-02-03T04:45:46;100548.06;;;1.69;100.00
35519;BME280;21627;48.216;16.482;2023-02-03T04:48:13;100538.88;;;1.72;100.00
35519;BME280;21627;48.216;16.482;2023-02-03T04:50:41;100547.47;;;1.75;100.00
35519;BME280;21627;48.216;16.482;2023-02-03T04:53:08;100528.38;;;1.66;100.00
35519;BME280;21627;48.216;16.482;2023-02-03T04:55:39;100526.94;;;1.71;100.00
35519;BME280;21627;48.216;16.482;2023-02-03T04:58:07;100534.03;;;1.79;100.00
35519;BME280;21627;48.216;16.482;2023-02-03T05:00:34;100531.44;;;1.77;100.00
35519;BME280;21627;48.216;16.482;2023-02-03T05:03:01;100533.25;;;1.80;100.00
35519;BME280;21627;48.216;16.482;2023-02-03T05:05:29;100527.50;;;1.84;100.00
35519;BME280;21627;48.216;16.482;2023-02-03T05:07:56;100535.31;;;1.87;100.00
35519;BME280;21627;48.216;16.482;2023-02-03T05:10:23;100531.81;;;1.85;100.00
35519;BME280;21627;48.216;16.482;2023-02-03T05:12:51;100536.75;;;1.82;100.00
35519;BME280;21627;48.216;16.482;2023-02-03T05:15:18;100527.78;;;1.90;100.00
35519;BME280;21627;48.216;16.482;2023-02-03T05:17:45;100524.22;;;1.86;100.00
35519;BME280;21627;48.216;16.482;2023-02-03T05:20:13;100521.75;;;1.88;100.00
35519;BME280;21627;48.216;16.482;2023-02-03T05:22:40;100510.59;;;1.86;100.00
35519;BME280;21627;48.216;16.482;2023-02-03T05:25:08;100508.00;;;1.84;100.00
35519;BME280;21627;48.216;16.482;2023-02-03T05:27:38;100498.66;;;1.85;100.00
35519;BME280;21627;48.216;16.482;2023-02-03T05:30:07;100503.25;;;1.92;100.00
35519;BME280;21627;48.216;16.482;2023-02-03T05:32:34;100502.19;;;2.06;100.00
35519;BME280;21627;48.216;16.482;2023-02-03T05:35:02;100491.19;;;2.07;100.00
35519;BME280;21627;48.216;16.482;2023-02-03T05:37:29;100487.69;;;2.05;100.00
35519;BME280;21627;48.216;16.482;2023-02-03T05:39:56;100474.22;;;2.08;100.00
35519;BME280;21627;48.216;16.482;2023-02-03T05:42:47;100480.75;;;2.21;100.00
35519;BME280;21627;48.216;16.482;2023-02-03T05:45:16;100473.25;;;2.06;100.00
35519;BME280;21627;48.216;16.482;2023-02-03T05:47:43;100476.97;;;2.12;100.00
35519;BME280;21627;48.216;16.482;2023-02-03T05:50:10;100474.56;;;2.15;100.00
35519;BME280;21627;48.216;16.482;2023-02-03T05:52:38;100470.28;;;2.14;100.00
35519;BME280;21627;48.216;16.482;2023-02-03T05:55:06;100475.63;;;2.21;100.00
35519;BME280;21627;48.216;16.482;2023-02-03T05:57:33;100482.56;;;2.23;100.00
35519;BME280;21627;48.216;16.482;2023-02-03T06:00:00;100476.38;;;2.18;100.00
35519;BME280;21627;48.216;16.482;2023-02-03T06:02:27;100458.88;;;2.26;100.00
35519;BME280;21627;48.216;16.482;2023-02-03T06:04:54;100468.25;;;2.27;100.00
35519;BME280;21627;48.216;16.482;2023-02-03T06:07:22;100465.84;;;2.30;100.00
35519;BME280;21627;48.216;16.482;2023-02-03T06:09:52;100463.31;;;2.30;100.00
35519;BME280;21627;48.216;16.482;2023-02-03T06:12:19;100454.09;;;2.33;100.00
35519;BME280;21627;48.216;16.482;2023-02-03T06:14:46;100457.38;;;2.31;100.00
35519;BME280;21627;48.216;16.482;2023-02-03T06:17:14;100451.63;;;2.35;100.00
35519;BME280;21627;48.216;16.482;2023-02-03T06:19:41;100457.72;;;2.38;100.00
35519;BME280;21627;48.216;16.482;2023-02-03T06:22:08;100446.66;;;2.38;100.00
35519;BME280;21627;48.216;16.482;2023-02-03T06:24:42;100443.56;;;2.45;100.00
35519;BME280;21627;48.216;16.482;2023-02-03T06:27:11;100429.84;;;2.43;100.00
35519;BME280;21627;48.216;16.482;2023-02-03T06:29:40;100426.16;;;2.36;100.00
35519;BME280;21627;48.216;16.482;2023-02-03T06:32:08;100429.19;;;2.47;100.00
35519;BME280;21627;48.216;16.482;2023-02-03T06:34:35;100430.41;;;2.55;100.00
35519;BME280;21627;48.216;16.482;2023-02-03T06:37:02;100416.06;;;2.59;100.00
35519;BME280;21627;48.216;16.482;2023-02-03T06:39:30;100417.00;;;2.61;100.00
35519;BME280;21627;48.216;16.482;2023-02-03T06:42:01;100424.38;;;2.74;100.00
35519;BME280;21627;48.216;16.482;2023-02-03T06:44:28;100428.41;;;2.69;100.00
35519;BME280;21627;48.216;16.482;2023-02-03T06:46:55;100420.50;;;2.63;100.00
35519;BME280;21627;48.216;16.482;2023-02-03T06:49:24;100420.28;;;2.78;100.00
35519;BME280;21627;48.216;16.482;2023-02-03T06:51:51;100423.47;;;2.72;100.00
35519;BME280;21627;48.216;16.482;2023-02-03T06:54:19;100414.16;;;2.74;100.00
35519;BME280;21627;48.216;16.482;2023-02-03T06:56:49;100414.56;;;2.84;100.00
35519;BME280;21627;48.216;16.482;2023-02-03T06:59:16;100402.22;;;2.73;100.00
35519;BME280;21627;48.216;16.482;2023-02-03T07:01:47;100412.94;;;2.86;100.00
35519;BME280;21627;48.216;16.482;2023-02-03T07:04:14;100417.03;;;2.82;100.00
35519;BME280;21627;48.216;16.482;2023-02-03T07:06:44;100402.72;;;2.86;100.00
35519;BME280;21627;48.216;16.482;2023-02-03T07:09:11;100395.63;;;2.78;100.00
35519;BME280;21627;48.216;16.482;2023-02-03T07:11:39;100404.47;;;2.87;100.00
35519;BME280;21627;48.216;16.482;2023-02-03T07:14:06;100381.44;;;2.85;100.00
35519;BME280;21627;48.216;16.482;2023-02-03T07:16:33;100401.44;;;2.95;100.00
35519;BME280;21627;48.216;16.482;2023-02-03T07:19:05;100394.44;;;2.91;100.00
35519;BME280;21627;48.216;16.482;2023-02-03T07:21:32;100403.03;;;3.14;100.00
35519;BME280;21627;48.216;16.482;2023-02-03T07:23:59;100388.75;;;3.19;100.00
35519;BME280;21627;48.216;16.482;2023-02-03T07:26:31;100380.97;;;3.16;100.00
35519;BME280;21627;48.216;16.482;2023-02-03T07:28:58;100386.31;;;3.22;100.00
35519;BME280;21627;48.216;16.482;2023-02-03T07:31:26;100384.22;;;3.33;100.00
35519;BME280;21627;48.216;16.482;2023-02-03T07:33:57;100374.38;;;3.44;100.00
35519;BME280;21627;48.216;16.482;2023-02-03T07:36:24;100374.38;;;3.44;100.00
35519;BME280;21627;48.216;16.482;2023-02-03T07:38:51;100373.53;;;3.43;100.00
35519;BME280;21627;48.216;16.482;2023-02-03T07:41:18;100354.88;;;3.46;100.00
35519;BME280;21627;48.216;16.482;2023-02-03T07:43:45;100370.41;;;3.51;100.00
35519;BME280;21627;48.216;16.482;2023-02-03T07:46:12;100366.53;;;3.62;100.00
35519;BME280;21627;48.216;16.482;2023-02-03T07:48:43;100376.19;;;3.69;100.00
35519;BME280;21627;48.216;16.482;2023-02-03T07:51:13;100365.09;;;3.68;100.00
35519;BME280;21627;48.216;16.482;2023-02-03T07:53:40;100330.09;;;3.67;100.00
35519;BME280;21627;48.216;16.482;2023-02-03T07:56:07;100347.59;;;3.79;100.00
35519;BME280;21627;48.216;16.482;2023-02-03T07:58:34;100336.69;;;3.85;100.00
35519;BME280;21627;48.216;16.482;2023-02-03T08:01:13;100342.16;;;3.94;100.00
35519;BME280;21627;48.216;16.482;2023-02-03T08:03:41;100339.03;;;4.03;100.00
35519;BME280;21627;48.216;16.482;2023-02-03T08:06:09;100332.69;;;3.92;100.00
35519;BME280;21627;48.216;16.482;2023-02-03T08:08:36;100348.50;;;4.04;100.00
35519;BME280;21627;48.216;16.482;2023-02-03T08:11:04;100335.72;;;4.05;100.00
35519;BME280;21627;48.216;16.482;2023-02-03T08:13:31;100330.13;;;4.16;100.00
35519;BME280;21627;48.216;16.482;2023-02-03T08:15:58;100321.53;;;4.14;100.00
35519;BME280;21627;48.216;16.482;2023-02-03T08:18:25;100320.00;;;4.19;100.00
35519;BME280;21627;48.216;16.482;2023-02-03T08:20:52;100295.31;;;4.21;100.00
35519;BME280;21627;48.216;16.482;2023-02-03T08:23:19;100280.34;;;4.31;100.00
35519;BME280;21627;48.216;16.482;2023-02-03T08:25:51;100310.72;;;4.46;100.00
35519;BME280;21627;48.216;16.482;2023-02-03T08:28:19;100297.94;;;4.48;100.00
35519;BME280;21627;48.216;16.482;2023-02-03T08:30:46;100280.00;;;4.46;100.00
35519;BME280;21627;48.216;16.482;2023-02-03T08:33:14;100290.66;;;4.60;100.00
35519;BME280;21627;48.216;16.482;2023-02-03T08:35:58;100255.28;;;4.48;100.00
35519;BME280;21627;48.216;16.482;2023-02-03T08:38:33;100267.31;;;4.51;100.00
35519;BME280;21627;48.216;16.482;2023-02-03T08:41:00;100243.47;;;4.52;100.00
35519;BME280;21627;48.216;16.482;2023-02-03T08:43:28;100262.81;;;4.69;100.00
35519;BME280;21627;48.216;16.482;2023-02-03T08:45:55;100253.25;;;4.65;100.00
35519;BME280;21627;48.216;16.482;2023-02-03T08:48:29;100257.69;;;4.69;100.00
35519;BME280;21627;48.216;16.482;2023-02-03T08:50:57;100260.38;;;4.74;100.00
35519;BME280;21627;48.216;16.482;2023-02-03T08:53:30;100253.31;;;4.94;100.00
35519;BME280;21627;48.216;16.482;2023-02-03T08:56:05;100232.06;;;4.98;100.00
35519;BME280;21627;48.216;16.482;2023-02-03T08:58:37;100236.09;;;4.90;100.00
35519;BME280;21627;48.216;16.482;2023-02-03T09:01:14;100226.00;;;4.94;100.00
35519;BME280;21627;48.216;16.482;2023-02-03T09:03:42;100256.34;;;5.09;100.00
35519;BME280;21627;48.216;16.482;2023-02-03T09:06:10;100235.00;;;5.10;100.00
35519;BME280;21627;48.216;16.482;2023-02-03T09:08:43;100247.13;;;5.16;100.00
35519;BME280;21627;48.216;16.482;2023-02-03T09:11:15;100237.88;;;5.21;100.00
35519;BME280;21627;48.216;16.482;2023-02-03T09:13:45;100253.31;;;5.23;100.00
35519;BME280;21627;48.216;16.482;2023-02-03T09:16:18;100235.28;;;5.19;100.00
35519;BME280;21627;48.216;16.482;2023-02-03T09:18:48;100229.59;;;5.30;100.00
35519;BME280;21627;48.216;16.482;2023-02-03T09:21:16;100246.13;;;5.39;100.00
35519;BME280;21627;48.216;16.482;2023-02-03T09:24:02;100209.47;;;5.43;100.00
35519;BME280;21627;48.216;16.482;2023-02-03T09:26:30;100233.53;;;5.49;100.00
35519;BME280;21627;48.216;16.482;2023-02-03T09:28:57;100234.53;;;5.52;100.00
35519;BME280;21627;48.216;16.482;2023-02-03T09:31:25;100214.00;;;5.52;100.00
35519;BME280;21627;48.216;16.482;2023-02-03T09:33:52;100207.31;;;5.59;100.00
35519;BME280;21627;48.216;16.482;2023-02-03T09:36:19;100205.97;;;5.72;100.00
35519;BME280;21627;48.216;16.482;2023-02-03T09:38:46;100185.22;;;5.62;100.00
35519;BME280;21627;48.216;16.482;2023-02-03T09:47:27;100173.84;;;5.86;100.00
35519;BME280;21627;48.216;16.482;2023-02-03T09:50:04;100183.38;;;5.92;100.00
35519;BME280;21627;48.216;16.482;2023-02-03T09:52:36;100198.84;;;5.93;100.00
35519;BME280;21627;48.216;16.482;2023-02-03T09:55:36;100186.91;;;5.94;100.00
35519;BME280;21627;48.216;16.482;2023-02-03T09:58:18;100175.13;;;6.02;100.00
35519;BME280;21627;48.216;16.482;2023-02-03T10:01:02;100179.81;;;6.18;100.00
35519;BME280;21627;48.216;16.482;2023-02-03T10:06:39;100162.16;;;6.31;100.00
35519;BME280;21627;48.216;16.482;2023-02-03T10:09:35;100175.81;;;6.29;100.00
35519;BME280;21627;48.216;16.482;2023-02-03T10:12:42;100173.56;;;6.43;100.00
35519;BME280;21627;48.216;16.482;2023-02-03T10:15:47;100147.03;;;6.44;98.45
35519;BME280;21627;48.216;16.482;2023-02-03T10:18:30;100143.84;;;6.53;98.25
35519;BME280;21627;48.216;16.482;2023-02-03T10:21:13;100158.69;;;6.66;95.86
35519;BME280;21627;48.216;16.482;2023-02-03T10:23:43;100132.13;;;6.67;96.38
35519;BME280;21627;48.216;16.482;2023-02-03T10:26:20;100141.81;;;6.79;95.77
35519;BME280;21627;48.216;16.482;2023-02-03T10:29:01;100131.59;;;6.81;96.57
35519;BME280;21627;48.216;16.482;2023-02-03T10:31:35;100143.53;;;6.79;95.77
35519;BME280;21627;48.216;16.482;2023-02-03T10:34:13;100132.44;;;6.81;95.73
35519;BME280;21627;48.216;16.482;2023-02-03T10:36:56;100119.63;;;6.83;95.61
35519;BME280;21627;48.216;16.482;2023-02-03T10:39:32;100121.47;;;6.90;95.68
35519;BME280;21627;48.216;16.482;2023-02-03T10:42:04;100113.81;;;6.91;94.29
35519;BME280;21627;48.216;16.482;2023-02-03T10:44:41;100135.19;;;6.89;94.37
35519;BME280;21627;48.216;16.482;2023-02-03T10:47:30;100108.63;;;6.90;94.02
35519;BME280;21627;48.216;16.482;2023-02-03T10:50:13;100125.66;;;6.83;96.24
35519;BME280;21627;48.216;16.482;2023-02-03T10:52:41;100104.38;;;6.90;93.07
35519;BME280;21627;48.216;16.482;2023-02-03T10:57:54;100091.53;;;6.92;93.80
35519;BME280;21627;48.216;16.482;2023-02-03T11:00:31;100118.91;;;6.88;92.72
35519;BME280;21627;48.216;16.482;2023-02-03T11:03:22;100097.38;;;6.85;94.17
35519;BME280;21627;48.216;16.482;2023-02-03T11:06:09;100105.91;;;6.82;96.10
35519;BME280;21627;48.216;16.482;2023-02-03T11:08:43;100082.81;;;6.85;94.25
35519;BME280;21627;48.216;16.482;2023-02-03T11:11:26;100081.97;;;6.85;93.55
35519;BME280;21627;48.216;16.482;2023-02-03T11:14:19;100071.88;;;6.94;93.66
35519;BME280;21627;48.216;16.482;2023-02-03T11:16:43;100096.63;;;6.89;93.62
35519;BME280;21627;48.216;16.482;2023-02-03T11:19:20;100067.66;;;6.98;90.25
35519;BME280;21627;48.216;16.482;2023-02-03T11:21:50;100060.75;;;6.93;92.38
35519;BME280;21627;48.216;16.482;2023-02-03T11:24:40;100053.78;;;6.89;93.02
35519;BME280;21627;48.216;16.482;2023-02-03T11:27:13;100072.66;;;6.90;91.36
35519;BME280;21627;48.216;16.482;2023-02-03T11:30:05;100056.16;;;6.80;95.28
35519;BME280;21627;48.216;16.482;2023-02-03T11:32:36;100075.97;;;6.84;96.18
35519;BME280;21627;48.216;16.482;2023-02-03T11:35:20;100085.22;;;6.76;99.10
35519;BME280;21627;48.216;16.482;2023-02-03T11:37:55;100062.88;;;6.72;100.00
35519;BME280;21627;48.216;16.482;2023-02-03T11:43:04;100039.97;;;6.42;100.00
35519;BME280;21627;48.216;16.482;2023-02-03T11:45:47;100021.84;;;6.34;100.00
35519;BME280;21627;48.216;16.482;2023-02-03T11:48:35;100010.75;;;6.35;100.00
35519;BME280;21627;48.216;16.482;2023-02-03T11:51:17;100014.97;;;6.33;100.00
35519;BME280;21627;48.216;16.482;2023-02-03T11:54:32;100009.13;;;6.40;100.00
35519;BME280;21627;48.216;16.482;2023-02-03T12:03:12;99983.59;;;6.48;100.00
35519;BME280;21627;48.216;16.482;2023-02-03T12:08:58;99944.03;;;6.38;100.00
35519;BME280;21627;48.216;16.482;2023-02-03T12:11:33;99908.69;;;6.26;100.00
35519;BME280;21627;48.216;16.482;2023-02-03T12:14:13;99948.72;;;6.17;100.00
35519;BME280;21627;48.216;16.482;2023-02-03T12:23:02;99892.97;;;5.72;100.00
35519;BME280;21627;48.216;16.482;2023-02-03T12:35:58;99860.19;;;5.58;100.00
35519;BME280;21627;48.216;16.482;2023-02-03T12:38:44;99862.97;;;5.69;100.00
35519;BME280;21627;48.216;16.482;2023-02-03T12:41:28;99839.09;;;5.72;100.00
35519;BME280;21627;48.216;16.482;2023-02-03T12:44:11;99813.78;;;5.89;100.00
35519;BME280;21627;48.216;16.482;2023-02-03T12:47:33;99815.69;;;5.96;100.00
35519;BME280;21627;48.216;16.482;2023-02-03T12:49:54;99789.16;;;5.97;100.00
35519;BME280;21627;48.216;16.482;2023-02-03T12:58:03;99751.59;;;6.00;100.00
35519;BME280;21627;48.216;16.482;2023-02-03T13:01:31;99726.72;;;5.96;100.00
35519;BME280;21627;48.216;16.482;2023-02-03T13:12:44;99701.34;;;6.13;100.00
35519;BME280;21627;48.216;16.482;2023-02-03T13:15:41;99711.56;;;6.10;100.00
35519;BME280;21627;48.216;16.482;2023-02-03T13:18:23;99672.34;;;6.19;100.00
35519;BME280;21627;48.216;16.482;2023-02-03T13:20:53;99703.41;;;6.33;100.00
35519;BME280;21627;48.216;16.482;2023-02-03T13:23:22;99667.34;;;6.25;99.86
35519;BME280;21627;48.216;16.482;2023-02-03T13:43:18;99659.56;;;6.20;100.00
35519;BME280;21627;48.216;16.482;2023-02-03T13:46:07;99674.56;;;5.97;100.00
35519;BME280;21627;48.216;16.482;2023-02-03T13:48:44;99670.69;;;5.74;100.00
35519;BME280;21627;48.216;16.482;2023-02-03T13:51:26;99664.66;;;5.72;100.00
35519;BME280;21627;48.216;16.482;2023-02-03T13:54:06;99676.63;;;5.71;100.00
35519;BME280;21627;48.216;16.482;2023-02-03T13:56:34;99689.72;;;5.86;100.00
35519;BME280;21627;48.216;16.482;2023-02-03T14:01:40;99706.56;;;5.71;100.00
35519;BME280;21627;48.216;16.482;2023-02-03T14:07:01;99730.91;;;5.49;100.00
35519;BME280;21627;48.216;16.482;2023-02-03T14:12:20;99721.94;;;5.28;100.00
35519;BME280;21627;48.216;16.482;2023-02-03T14:15:01;99728.47;;;5.12;100.00
35519;BME280;21627;48.216;16.482;2023-02-03T14:20:40;99764.28;;;5.09;100.00
35519;BME280;21627;48.216;16.482;2023-02-03T14:23:33;99775.00;;;4.93;100.00
35519;BME280;21627;48.216;16.482;2023-02-03T14:26:03;99759.44;;;4.85;100.00
35519;BME280;21627;48.216;16.482;2023-02-03T14:28:42;99764.47;;;4.81;100.00
35519;BME280;21627;48.216;16.482;2023-02-03T14:31:20;99745.63;;;4.78;100.00
35519;BME280;21627;48.216;16.482;2023-02-03T14:34:09;99769.63;;;4.82;100.00
35519;BME280;21627;48.216;16.482;2023-02-03T14:36:49;99754.22;;;4.81;100.00
35519;BME280;21627;48.216;16.482;2023-02-03T14:42:07;99755.81;;;4.75;100.00
35519;BME280;21627;48.216;16.482;2023-02-03T14:44:50;99721.53;;;4.70;100.00
35519;BME280;21627;48.216;16.482;2023-02-03T14:50:33;99750.50;;;4.68;100.00
35519;BME280;21627;48.216;16.482;2023-02-03T14:58:42;99755.56;;;4.65;100.00
35519;BME280;21627;48.216;16.482;2023-02-03T15:06:47;99712.94;;;4.67;100.00
35519;BME280;21627;48.216;16.482;2023-02-03T15:09:46;99697.53;;;4.65;100.00
35519;BME280;21627;48.216;16.482;2023-02-03T15:12:23;99683.09;;;4.69;100.00
35519;BME280;21627;48.216;16.482;2023-02-03T15:14:52;99694.06;;;4.63;100.00
35519;BME280;21627;48.216;16.482;2023-02-03T15:17:22;99683.00;;;4.64;100.00
35519;BME280;21627;48.216;16.482;2023-02-03T15:19:51;99673.44;;;4.57;100.00
35519;BME280;21627;48.216;16.482;2023-02-03T15:22:26;99665.59;;;4.51;100.00
35519;BME280;21627;48.216;16.482;2023-02-03T15:25:02;99685.56;;;4.64;100.00
35519;BME280;21627;48.216;16.482;2023-02-03T15:27:39;99688.00;;;4.60;100.00
35519;BME280;21627;48.216;16.482;2023-02-03T15:30:27;99679.50;;;4.61;100.00
35519;BME280;21627;48.216;16.482;2023-02-03T15:33:16;99697.59;;;4.68;100.00
35519;BME280;21627;48.216;16.482;2023-02-03T15:35:52;99683.06;;;4.67;100.00
35519;BME280;21627;48.216;16.482;2023-02-03T15:38:37;99671.91;;;4.65;100.00
35519;BME280;21627;48.216;16.482;2023-02-03T15:41:25;99688.81;;;4.57;100.00